YQA weather

Muskoka Airport
Muskoka, Ontario, Canada

Public forecast

Using degrees Celsius for public forecast. Weather courtesy of forecast.io.

METAR (pilot weather report)

Retrieved 2019/04/20 23:34 UTC (15 minutes ago):

CYQA 202334Z AUTO 34002KT 9SM BKN016 OVC022 06/05 A2970 RMK SLP068

TAF (pilot weather forecast)

Retrieved 2019/04/20 20:00 UTC (4 hours ago):

TAF CYQA 201938Z 2020/2102 03012KT P6SM -SHRA OVC015 TEMPO 2020/2102 4SM -SHRA BR BKN008 OVC015 RMK FCST BASED ON AUTO OBS. NXT FCST WILL BE ISSUED AT 211145Z